Time;durP1;ratioP1;P1;durP2;ratioP2;P2;SDS_P1;SDS_P2;PMS_P1;PMS_P2;Temp;Humidity;BMP_temperature;BMP_pressure;BME280_temperature;BME280_humidity;BME280_pressure;Samples;Min_cycle;Max_cycle;Signal;HPM_P1;HPM_P2
2022/10/24 00:02:03;;;;;;;6.07;3.83;;;;;;;10.40;88.92;95369.56;5029693;28;20262;-75
2022/10/24 00:04:30;;;;;;;7.68;3.85;;;;;;;10.37;89.46;95374.81;5029658;28;20220;-75
2022/10/24 00:06:56;;;;;;;5.03;3.85;;;;;;;10.30;89.79;95364.41;5029034;28;20322;-75
2022/10/24 00:09:23;;;;;;;8.10;4.05;;;;;;;10.32;89.99;95373.03;5029808;28;20563;-75
2022/10/24 00:11:51;;;;;;;16.48;4.28;;;;;;;10.27;90.28;95370.44;5030041;28;20270;-75
2022/10/24 00:14:18;;;;;;;4.28;3.22;;;;;;;10.25;90.60;95361.84;5030407;28;20259;-78
2022/10/24 00:16:45;;;;;;;6.93;4.03;;;;;;;10.34;90.12;95359.97;5029333;28;20571;-75
2022/10/24 00:19:11;;;;;;;10.52;4.10;;;;;;;10.37;89.75;95364.00;5029759;28;20205;-74
2022/10/24 00:21:38;;;;;;;4.88;3.33;;;;;;;10.32;89.37;95367.59;5029682;28;20651;-74
2022/10/24 00:24:06;;;;;;;5.60;3.33;;;;;;;10.20;89.60;95364.66;5029712;28;20618;-73
2022/10/24 00:26:33;;;;;;;6.68;2.92;;;;;;;10.29;90.61;95363.59;5029784;28;20311;-74
2022/10/24 00:29:02;;;;;;;6.80;3.50;;;;;;;10.24;90.74;95365.66;5029543;28;20272;-75
2022/10/24 00:31:29;;;;;;;6.75;3.50;;;;;;;10.46;90.00;95346.69;5029575;28;20220;-74
2022/10/24 00:33:56;;;;;;;5.28;3.72;;;;;;;10.34;90.59;95351.84;5029738;28;20200;-74
2022/10/24 00:36:24;;;;;;;4.43;2.70;;;;;;;10.23;90.81;95350.50;5029807;28;20231;-74
2022/10/24 00:38:51;;;;;;;6.75;3.53;;;;;;;10.20;91.30;95348.41;5028641;28;20212;-74
2022/10/24 00:41:20;;;;;;;7.50;3.63;;;;;;;10.20;91.13;95348.41;5029472;28;20270;-74
2022/10/24 00:43:47;;;;;;;4.47;2.47;;;;;;;10.19;90.88;95346.81;5029119;28;20676;-74
2022/10/24 00:46:17;;;;;;;3.75;2.72;;;;;;;10.13;91.16;95358.81;5029497;28;20208;-74
2022/10/24 00:48:47;;;;;;;5.38;3.05;;;;;;;10.02;91.40;95358.25;5029411;28;20279;-74
2022/10/24 00:51:20;;;;;;;7.22;2.97;;;;;;;10.02;91.92;95352.03;5027998;28;20212;-75
2022/10/24 00:53:53;;;;;;;7.72;3.28;;;;;;;9.97;91.25;95356.50;5029615;28;20266;-75
2022/10/24 00:56:23;;;;;;;5.38;3.20;;;;;;;9.91;91.31;95360.41;5029210;28;20690;-74
2022/10/24 00:58:53;;;;;;;3.17;2.63;;;;;;;10.02;90.74;95357.47;5029151;28;20567;-74
2022/10/24 01:01:21;;;;;;;5.28;2.85;;;;;;;10.05;91.29;95362.25;5029060;28;20610;-74
2022/10/24 01:03:48;;;;;;;7.85;3.35;;;;;;;9.96;91.28;95359.50;5029534;28;20274;-74
2022/10/24 01:06:31;;;;;;;8.77;3.75;;;;;;;9.85;91.47;95358.91;5029261;28;20699;-75
2022/10/24 01:09:09;;;;;;;5.40;3.15;;;;;;;9.88;90.97;95346.66;5028211;28;20228;-75
2022/10/24 01:11:52;;;;;;;4.90;2.97;;;;;;;9.51;91.60;95362.09;5028340;28;20239;-74
2022/10/24 01:14:28;;;;;;;5.05;2.42;;;;;;;9.50;92.22;95360.47;5028637;28;20613;-74
2022/10/24 01:17:05;;;;;;;5.80;3.03;;;;;;;9.40;93.96;95368.00;5029426;28;20680;-74
2022/10/24 01:20:03;;;;;;;4.80;2.75;;;;;;;9.21;93.13;95368.91;5029592;28;20196;-74
2022/10/24 01:22:37;;;;;;;5.75;3.22;;;;;;;9.29;92.78;95367.41;5029363;28;20193;-74
2022/10/24 01:25:13;;;;;;;7.47;3.10;;;;;;;9.39;92.56;95361.00;5028462;28;20671;-74
2022/10/24 01:28:00;;;;;;;9.82;4.70;;;;;;;9.37;92.98;95366.69;5028711;28;20220;-74
2022/10/24 01:30:31;;;;;;;4.22;2.65;;;;;;;9.14;92.78;95359.59;5029556;28;20208;-74
2022/10/24 01:33:03;;;;;;;4.10;3.08;;;;;;;9.12;93.23;95365.31;5032068;28;20605;-74
2022/10/24 01:35:39;;;;;;;3.15;2.67;;;;;;;9.19;92.89;95363.00;5033177;28;20200;-74
2022/10/24 01:38:13;;;;;;;4.43;2.88;;;;;;;9.23;93.03;95363.19;5032860;28;20310;-74
2022/10/24 01:40:47;;;;;;;5.72;3.33;;;;;;;9.23;92.76;95358.59;5032663;28;20254;-74
2022/10/24 01:43:16;;;;;;;6.10;3.50;;;;;;;9.37;93.04;95357.78;5033525;28;20582;-74
2022/10/24 01:45:48;;;;;;;5.35;3.25;;;;;;;9.35;92.89;95354.59;5032353;28;20212;-74
2022/10/24 01:48:20;;;;;;;4.95;2.88;;;;;;;9.34;93.25;95358.38;5032725;28;20224;-74
2022/10/24 01:50:49;;;;;;;4.13;2.50;;;;;;;9.40;93.31;95352.59;5033152;28;20208;-73
2022/10/24 01:53:16;;;;;;;5.07;3.28;;;;;;;9.46;93.33;95358.69;5032950;28;20251;-74
2022/10/24 01:55:44;;;;;;;3.30;2.60;;;;;;;9.42;93.39;95344.19;5032091;28;20208;-74
2022/10/24 01:58:11;;;;;;;5.20;3.17;;;;;;;9.47;93.43;95355.66;5032522;28;20731;-74
2022/10/24 02:00:38;;;;;;;7.13;2.90;;;;;;;9.45;93.24;95351.66;5032424;28;20663;-74
2022/10/24 02:03:22;;;;;;;5.85;2.95;;;;;;;9.41;93.19;95347.97;5032225;28;20287;-73
2022/10/24 02:05:53;;;;;;;3.55;2.58;;;;;;;9.29;93.86;95355.81;5032371;28;20442;-74
2022/10/24 02:08:28;;;;;;;5.93;3.45;;;;;;;9.35;93.97;95357.28;5032515;28;20270;-74
2022/10/24 02:10:58;;;;;;;4.40;2.80;;;;;;;9.37;94.20;95352.38;5032364;28;20199;-75
2022/10/24 02:13:32;;;;;;;8.60;3.13;;;;;;;9.38;93.97;95354.00;5031848;28;20725;-75
2022/10/24 02:16:01;;;;;;;6.75;2.65;;;;;;;9.37;93.85;95358.59;5032229;28;20208;-75
2022/10/24 02:18:30;;;;;;;10.20;3.35;;;;;;;9.39;93.74;95361.00;5032137;28;20208;-74
2022/10/24 02:21:04;;;;;;;3.55;2.53;;;;;;;9.41;93.47;95358.78;5032586;28;20208;-74
2022/10/24 02:23:36;;;;;;;6.63;3.45;;;;;;;9.38;93.59;95359.41;5032101;28;20285;-74
2022/10/24 02:26:06;;;;;;;3.85;2.75;;;;;;;9.42;93.50;95352.28;5032481;28;20205;-74
2022/10/24 02:28:38;;;;;;;10.80;2.90;;;;;;;9.50;93.12;95357.78;5031968;28;20275;-74
2022/10/24 02:31:10;;;;;;;5.43;2.72;;;;;;;9.54;92.41;95349.88;5031711;28;20196;-74
2022/10/24 02:33:41;;;;;;;10.00;2.95;;;;;;;9.56;92.40;95361.19;5031149;28;20311;-75
2022/10/24 02:36:10;;;;;;;8.60;3.30;;;;;;;9.59;91.78;95355.16;5031188;28;20254;-74
2022/10/24 02:38:41;;;;;;;4.20;2.80;;;;;;;9.52;92.30;95354.78;5031909;28;20738;-74
2022/10/24 02:41:11;;;;;;;5.82;2.75;;;;;;;9.54;92.03;95352.56;5031548;28;20278;-73
2022/10/24 02:43:40;;;;;;;3.58;2.47;;;;;;;9.60;92.28;95351.34;5029948;28;20208;-73
2022/10/24 02:46:09;;;;;;;5.28;3.65;;;;;;;9.63;92.03;95351.53;5031933;28;20216;-74
2022/10/24 02:48:42;;;;;;;3.60;2.58;;;;;;;9.62;91.86;95349.13;5031104;28;20228;-74
2022/10/24 02:51:10;;;;;;;4.40;2.53;;;;;;;9.61;91.68;95355.66;5030908;28;20204;-73
2022/10/24 02:53:37;;;;;;;4.20;3.15;;;;;;;9.62;91.39;95360.75;5031556;28;20200;-75
2022/10/24 02:56:04;;;;;;;5.30;2.67;;;;;;;9.69;91.09;95360.38;5032123;28;20200;-75
2022/10/24 02:58:31;;;;;;;6.03;3.28;;;;;;;9.67;91.22;95351.75;5031491;28;20234;-74
2022/10/24 03:00:57;;;;;;;3.83;2.40;;;;;;;9.73;91.26;95355.94;5018730;28;20641;-74
2022/10/24 03:03:24;;;;;;;4.30;2.67;;;;;;;9.81;90.80;95357.13;5031401;28;20282;-74
2022/10/24 03:05:52;;;;;;;4.28;2.78;;;;;;;9.75;90.87;95352.91;5031196;28;20293;-74
2022/10/24 03:08:19;;;;;;;8.45;3.65;;;;;;;9.67;91.23;95350.94;5030954;28;20274;-74
2022/10/24 03:10:46;;;;;;;9.27;4.00;;;;;;;9.68;91.48;95347.94;5030944;28;20274;-77
2022/10/24 03:13:13;;;;;;;6.38;3.33;;;;;;;9.62;91.92;95349.13;5030997;28;20265;-74
2022/10/24 03:15:39;;;;;;;5.05;3.22;;;;;;;9.46;91.70;95347.84;5031280;28;20208;-75
2022/10/24 03:18:06;;;;;;;4.72;2.70;;;;;;;9.45;92.03;95351.66;5030568;28;20209;-74
2022/10/24 03:20:33;;;;;;;5.45;3.05;;;;;;;9.40;92.42;95346.38;5031217;28;20278;-73
2022/10/24 03:23:01;;;;;;;5.25;3.30;;;;;;;9.41;92.26;95347.97;5030955;28;20690;-74
2022/10/24 03:25:28;;;;;;;4.35;2.78;;;;;;;9.42;92.05;95349.59;5031782;28;20204;-74
2022/10/24 03:27:55;;;;;;;10.45;5.85;;;;;;;9.37;92.03;95336.97;5030965;28;20266;-75
2022/10/24 03:30:21;;;;;;;11.73;5.15;;;;;;;9.41;92.07;95337.16;5031465;28;20695;-75
2022/10/24 03:32:48;;;;;;;6.85;4.00;;;;;;;9.32;92.57;95347.06;5025264;28;20694;-71
2022/10/24 03:35:15;;;;;;;9.43;3.90;;;;;;;9.30;92.36;95351.97;5017423;28;20193;-72
2022/10/24 03:37:42;;;;;;;6.88;3.95;;;;;;;9.32;92.32;95344.38;5025847;28;20605;-72
2022/10/24 03:40:11;;;;;;;11.50;5.40;;;;;;;9.15;93.39;95334.19;5029461;28;20204;-72
2022/10/24 03:42:38;;;;;;;6.70;3.92;;;;;;;9.18;93.41;95350.56;5029139;28;20212;-74
2022/10/24 03:45:06;;;;;;;8.77;4.47;;;;;;;9.21;93.53;95349.97;5029248;28;20563;-73
2022/10/24 03:47:33;;;;;;;9.25;5.65;;;;;;;9.18;93.57;95350.56;5030001;28;20208;-75
2022/10/24 03:50:00;;;;;;;9.60;5.20;;;;;;;9.41;93.17;95351.50;5029711;28;20235;-74
2022/10/24 03:52:27;;;;;;;8.55;4.82;;;;;;;9.26;93.61;95352.59;5029710;28;20687;-73
2022/10/24 03:54:53;;;;;;;15.18;4.63;;;;;;;9.25;94.09;95355.59;5029874;28;20212;-73
2022/10/24 03:57:21;;;;;;;13.90;6.55;;;;;;;9.21;94.49;95349.97;5030040;28;20548;-73
2022/10/24 03:59:48;;;;;;;11.35;4.82;;;;;;;9.24;94.13;95348.59;5029685;28;20209;-74
2022/10/24 04:02:15;;;;;;;20.67;8.07;;;;;;;9.19;92.78;95348.69;5030147;28;20216;-74
2022/10/24 04:04:42;;;;;;;12.55;6.22;;;;;;;9.18;92.59;95347.88;5029634;28;20641;-73
2022/10/24 04:07:08;;;;;;;8.85;4.55;;;;;;;9.09;92.92;95349.69;5028995;28;20635;-73
2022/10/24 04:09:35;;;;;;;15.20;4.20;;;;;;;9.00;93.20;95348.78;5029939;28;20303;-77
2022/10/24 04:12:02;;;;;;;9.05;3.92;;;;;;;9.00;93.29;95340.69;5029828;28;20258;-76
2022/10/24 04:14:30;;;;;;;4.30;3.00;;;;;;;8.99;93.26;95339.09;5029333;28;20212;-73
2022/10/24 04:16:57;;;;;;;8.20;3.42;;;;;;;8.98;92.59;95337.47;5028960;28;20211;-72
2022/10/24 04:19:24;;;;;;;3.92;3.03;;;;;;;9.00;93.37;95338.00;5029066;28;20208;-73
2022/10/24 04:21:50;;;;;;;5.88;3.70;;;;;;;8.99;93.81;95330.97;5029917;28;20188;-74
2022/10/24 04:24:17;;;;;;;5.38;3.50;;;;;;;8.95;94.12;95331.88;5029329;28;20578;-73
2022/10/24 04:26:44;;;;;;;5.97;3.47;;;;;;;8.89;93.97;95333.84;5029676;28;20606;-75
2022/10/24 04:29:11;;;;;;;12.10;3.30;;;;;;;8.96;94.13;95331.56;5029020;28;20236;-77
2022/10/24 04:31:40;;;;;;;4.63;2.75;;;;;;;8.96;94.48;95336.16;5029599;28;20709;-76
2022/10/24 04:34:06;;;;;;;7.75;3.78;;;;;;;8.85;94.38;95332.88;5029604;28;20208;-75
2022/10/24 04:36:34;;;;;;;9.15;4.35;;;;;;;8.89;94.38;95336.56;5029664;28;20610;-74
2022/10/24 04:39:01;;;;;;;6.65;4.50;;;;;;;8.91;94.38;95347.88;5029332;28;20275;-74
2022/10/24 04:41:27;;;;;;;7.00;3.90;;;;;;;8.94;93.80;95344.56;5029609;28;20258;-73
2022/10/24 04:43:54;;;;;;;7.10;4.68;;;;;;;8.97;93.43;95343.19;5029247;28;20208;-75
2022/10/24 04:46:21;;;;;;;17.65;3.83;;;;;;;9.00;94.13;95348.78;5027786;28;20291;-74
2022/10/24 04:48:49;;;;;;;7.38;3.53;;;;;;;9.05;93.81;95356.78;5027136;28;20224;-74
2022/10/24 04:51:16;;;;;;;5.93;3.60;;;;;;;9.09;94.06;95357.78;5029203;28;20821;-74
2022/10/24 04:53:42;;;;;;;9.25;4.53;;;;;;;9.13;93.84;95353.41;5028886;28;20266;-74
2022/10/24 04:56:09;;;;;;;6.78;3.50;;;;;;;9.19;93.87;95354.09;5028812;28;20658;-74
2022/10/24 04:58:36;;;;;;;5.70;3.80;;;;;;;9.24;93.48;95360.19;5028835;28;20208;-74
2022/10/24 05:01:03;;;;;;;11.93;4.45;;;;;;;9.29;93.49;95355.81;5028094;28;20231;-74
2022/10/24 05:03:30;;;;;;;19.73;6.65;;;;;;;9.35;93.77;95357.28;5027784;28;20639;-74
2022/10/24 05:05:58;;;;;;;10.70;4.68;;;;;;;9.51;93.58;95355.88;5027560;28;20247;-73
2022/10/24 05:08:25;;;;;;;8.25;6.13;;;;;;;9.62;92.96;95349.94;5029017;28;20215;-74
2022/10/24 05:10:51;;;;;;;20.42;5.90;;;;;;;9.69;91.89;95354.16;5028402;28;20941;-74
2022/10/24 05:13:18;;;;;;;11.20;5.45;;;;;;;9.72;92.00;95358.94;5028337;28;20660;-74
2022/10/24 05:15:45;;;;;;;6.38;3.97;;;;;;;10.01;91.28;95355.84;5028174;28;20208;-73
2022/10/24 05:18:12;;;;;;;8.25;4.50;;;;;;;10.26;89.99;95356.09;5028877;28;20200;-73
2022/10/24 05:20:39;;;;;;;8.18;4.15;;;;;;;10.31;89.78;95349.75;5029023;28;20266;-74
2022/10/24 05:23:08;;;;;;;8.75;4.25;;;;;;;10.55;89.24;95355.66;5028793;28;20208;-74
2022/10/24 05:25:34;;;;;;;6.50;4.47;;;;;;;10.72;88.36;95343.31;5029369;28;20232;-75
2022/10/24 05:28:01;;;;;;;5.65;3.88;;;;;;;11.02;87.50;95351.47;5028960;28;20729;-74
2022/10/24 05:30:28;;;;;;;17.13;5.20;;;;;;;11.44;86.59;95360.06;5029002;28;20240;-74
2022/10/24 05:32:55;;;;;;;7.55;4.65;;;;;;;12.05;83.97;95355.56;5028444;28;20215;-75
2022/10/24 05:35:21;;;;;;;8.95;5.07;;;;;;;12.33;81.04;95342.47;5026467;28;20203;-73
2022/10/24 05:37:48;;;;;;;6.75;4.78;;;;;;;13.19;79.11;95347.75;5027651;28;20645;-74
2022/10/24 05:40:17;;;;;;;16.08;5.93;;;;;;;14.01;75.65;95340.88;5024085;28;20197;-74
2022/10/24 05:42:44;;;;;;;14.18;6.28;;;;;;;14.03;73.53;95341.34;5025495;28;20307;-73
2022/10/24 05:45:11;;;;;;;10.88;5.45;;;;;;;14.77;72.57;95337.03;5028799;28;20399;-72
2022/10/24 05:47:38;;;;;;;8.88;5.63;;;;;;;15.09;69.84;95340.88;5027769;28;20208;-72
2022/10/24 05:50:06;;;;;;;13.20;5.93;;;;;;;15.44;69.55;95342.06;5028768;28;20232;-75
2022/10/24 05:52:35;;;;;;;11.02;5.10;;;;;;;15.83;67.15;95337.06;5027597;28;20204;-73
2022/10/24 05:55:02;;;;;;;16.63;7.70;;;;;;;15.30;68.24;95344.34;5024312;28;20554;-73
2022/10/24 05:57:30;;;;;;;9.45;5.68;;;;;;;15.50;66.71;95346.16;5027040;28;20274;-76
2022/10/24 05:59:57;;;;;;;10.10;4.45;;;;;;;15.25;67.42;95355.47;5028778;28;20331;-73
2022/10/24 06:02:24;;;;;;;19.83;6.20;;;;;;;15.46;66.74;95345.22;5028004;28;20192;-74
2022/10/24 06:04:51;;;;;;;20.55;5.72;;;;;;;15.63;67.12;95355.97;5027793;28;20250;-75
2022/10/24 06:07:18;;;;;;;12.10;5.93;;;;;;;16.01;65.23;95360.25;5028625;28;20259;-75
2022/10/24 06:09:45;;;;;;;17.83;8.45;;;;;;;16.08;66.07;95363.22;5028194;28;20270;-75
2022/10/24 06:12:12;;;;;;;13.02;6.43;;;;;;;16.82;64.14;95372.81;5028268;28;20251;-75
2022/10/24 06:14:40;;;;;;;10.85;5.07;;;;;;;17.14;62.80;95360.00;5028972;28;20841;-75
2022/10/24 06:17:10;;;;;;;12.45;5.95;;;;;;;17.61;61.09;95365.53;5027390;28;20188;-76
2022/10/24 06:19:37;;;;;;;11.57;6.07;;;;;;;17.83;60.16;95355.09;5032313;28;20681;-76
2022/10/24 06:22:05;;;;;;;16.67;5.18;;;;;;;17.55;60.23;95353.22;5032491;28;20200;-75
2022/10/24 06:24:35;;;;;;;8.80;4.90;;;;;;;17.98;60.30;95352.34;5030806;28;20314;-72
2022/10/24 06:27:01;;;;;;;16.77;6.15;;;;;;;17.68;60.69;95349.28;5031553;28;20679;-74
2022/10/24 06:29:28;;;;;;;11.95;5.90;;;;;;;17.94;60.02;95367.09;5032135;28;20240;-74
2022/10/24 06:31:57;;;;;;;21.05;9.82;;;;;;;17.71;59.69;95367.75;5031788;28;20208;-75
2022/10/24 06:34:23;;;;;;;16.73;5.90;;;;;;;17.50;60.39;95360.91;5031331;28;20216;-75
2022/10/24 06:36:50;;;;;;;11.20;6.03;;;;;;;17.44;60.47;95359.59;5031784;28;20219;-74
2022/10/24 06:39:17;;;;;;;9.45;5.28;;;;;;;17.00;60.91;95365.91;5031484;28;20254;-73
2022/10/24 06:41:44;;;;;;;10.80;5.82;;;;;;;16.98;61.97;95372.88;5031647;28;20605;-75
2022/10/24 06:44:11;;;;;;;19.48;8.13;;;;;;;16.98;62.31;95370.94;5031495;28;20347;-75
2022/10/24 06:46:38;;;;;;;10.32;6.28;;;;;;;16.75;63.08;95382.78;5031257;28;20223;-74
2022/10/24 06:49:07;;;;;;;11.00;6.22;;;;;;;16.75;62.88;95383.59;5026667;28;20275;-75
2022/10/24 06:51:33;;;;;;;9.65;5.45;;;;;;;16.19;64.15;95383.47;5031620;28;20204;-73
2022/10/24 06:54:00;;;;;;;11.35;5.88;;;;;;;16.26;64.20;95389.16;5031321;28;20251;-74
2022/10/24 06:56:27;;;;;;;10.50;5.72;;;;;;;16.25;64.61;95393.06;5031313;28;20215;-74
2022/10/24 06:58:54;;;;;;;11.13;6.88;;;;;;;16.00;65.88;95396.94;5031395;28;20630;-73
2022/10/24 07:01:22;;;;;;;9.95;6.00;;;;;;;15.46;66.21;95399.84;5031030;28;20635;-75
2022/10/24 07:03:49;;;;;;;19.00;9.45;;;;;;;15.06;67.76;95402.38;5031004;28;20290;-74
2022/10/24 07:06:21;;;;;;;14.68;6.72;;;;;;;15.46;67.37;95388.94;5031452;28;20289;-74
2022/10/24 07:08:48;;;;;;;12.10;5.50;;;;;;;15.66;67.07;95391.94;5031404;28;20603;-76
2022/10/24 07:11:15;;;;;;;9.10;6.18;;;;;;;15.84;66.36;95390.59;5031467;28;20221;-77
2022/10/24 07:13:42;;;;;;;13.80;8.32;;;;;;;15.83;66.04;95389.00;5030723;28;20212;-74
2022/10/24 07:16:09;;;;;;;15.43;8.00;;;;;;;16.05;65.29;95382.25;5030694;28;20274;-74
2022/10/24 07:18:36;;;;;;;14.85;7.82;;;;;;;15.92;65.41;95378.72;5030060;28;20351;-75
2022/10/24 07:21:04;;;;;;;8.90;4.88;;;;;;;15.65;66.51;95391.16;5030681;28;20207;-75
2022/10/24 07:23:33;;;;;;;14.73;6.05;;;;;;;15.74;66.17;95382.81;5030946;28;20269;-75
2022/10/24 07:26:04;;;;;;;11.85;6.00;;;;;;;15.99;65.48;95373.47;5025932;28;20205;-75
2022/10/24 07:28:31;;;;;;;8.60;5.18;;;;;;;15.99;65.36;95378.94;5029079;28;20564;-72
2022/10/24 07:30:58;;;;;;;11.85;4.47;;;;;;;15.65;66.18;95382.94;5029246;28;20293;-75
2022/10/24 07:33:26;;;;;;;14.00;4.90;;;;;;;15.74;66.68;95378.16;5029485;28;20262;-74
2022/10/24 07:35:52;;;;;;;13.60;7.22;;;;;;;15.70;66.89;95388.19;5026479;28;20250;-74
2022/10/24 07:38:19;;;;;;;14.85;6.28;;;;;;;15.65;66.60;95372.03;5030829;28;20204;-75
2022/10/24 07:40:48;;;;;;;16.45;5.97;;;;;;;16.10;65.54;95379.28;5026046;28;20213;-74
2022/10/24 07:43:15;;;;;;;11.75;6.07;;;;;;;15.88;65.19;95373.16;5028529;28;20205;-74
2022/10/24 07:45:43;;;;;;;15.88;6.25;;;;;;;16.11;64.99;95383.63;5029256;28;20204;-76
2022/10/24 07:48:10;;;;;;;9.55;6.22;;;;;;;16.12;64.84;95387.94;5030376;28;20266;-75
2022/10/24 07:50:43;;;;;;;14.48;8.80;;;;;;;15.71;66.00;95389.00;5030068;28;20290;-76
2022/10/24 07:53:10;;;;;;;14.00;8.43;;;;;;;15.92;65.18;95376.00;5024069;28;20716;-74
2022/10/24 07:55:38;;;;;;;10.60;5.75;;;;;;;16.22;64.56;95371.88;5025797;28;20652;-75
2022/10/24 07:58:07;;;;;;;12.90;8.05;;;;;;;16.62;63.15;95368.31;5030123;28;20211;-74
2022/10/24 08:00:34;;;;;;;15.75;7.75;;;;;;;16.52;63.38;95374.28;5029745;28;20216;-72
2022/10/24 08:03:00;;;;;;;13.15;5.45;;;;;;;16.44;63.55;95375.22;5029069;28;20756;-73
2022/10/24 08:05:27;;;;;;;9.52;5.75;;;;;;;16.63;63.31;95359.00;5029972;28;20236;-72
2022/10/24 08:07:54;;;;;;;10.50;5.20;;;;;;;16.75;62.44;95369.91;5029288;28;20208;-73
2022/10/24 08:10:21;;;;;;;19.75;6.57;;;;;;;16.80;62.32;95366.94;5030616;28;20368;-73
2022/10/24 08:12:48;;;;;;;10.48;5.28;;;;;;;16.82;62.81;95370.09;5030132;28;20200;-75
2022/10/24 08:15:16;;;;;;;8.63;4.85;;;;;;;16.59;62.45;95374.50;5030157;28;20618;-73
2022/10/24 08:17:43;;;;;;;9.15;5.30;;;;;;;16.49;63.40;95364.84;5029520;28;20282;-74
2022/10/24 08:20:11;;;;;;;13.13;5.47;;;;;;;16.86;62.62;95360.03;5029492;28;20216;-75
2022/10/24 08:22:37;;;;;;;8.35;5.35;;;;;;;17.19;60.92;95364.44;5029833;28;20227;-76
2022/10/24 08:25:08;;;;;;;12.60;7.30;;;;;;;17.12;60.61;95369.72;5030055;28;20282;-74
2022/10/24 08:27:35;;;;;;;12.85;7.80;;;;;;;17.05;61.33;95360.19;5030025;28;20196;-74
2022/10/24 08:30:02;;;;;;;14.90;9.00;;;;;;;16.90;61.63;95363.69;5029364;28;20442;-74
2022/10/24 08:32:30;;;;;;;10.68;5.60;;;;;;;16.90;62.21;95360.94;5029787;28;20207;-72
2022/10/24 08:34:57;;;;;;;10.27;5.82;;;;;;;17.07;61.47;95350.81;5029047;28;20266;-77
2022/10/24 08:37:24;;;;;;;16.77;5.63;;;;;;;17.10;61.15;95355.56;5029827;28;20232;-75
2022/10/24 08:39:54;;;;;;;15.13;7.72;;;;;;;16.96;62.05;95345.84;5029573;28;20219;-74
2022/10/24 08:42:24;;;;;;;13.98;6.85;;;;;;;17.11;61.62;95351.69;5029211;28;20303;-76
2022/10/24 08:44:51;;;;;;;13.20;6.20;;;;;;;17.22;61.31;95339.09;5029395;28;20216;-74
2022/10/24 08:47:27;;;;;;;14.05;6.80;;;;;;;17.38;60.81;95339.88;5028931;28;20724;-77
2022/10/24 08:50:01;;;;;;;13.88;7.32;;;;;;;17.33;60.94;95340.16;5028571;28;20219;-73
2022/10/24 08:52:32;;;;;;;12.38;7.00;;;;;;;17.32;61.17;95330.34;5028426;28;20204;-74
2022/10/24 08:55:03;;;;;;;12.93;7.07;;;;;;;17.55;59.87;95328.56;5028738;28;20212;-75
2022/10/24 08:57:34;;;;;;;10.73;6.13;;;;;;;17.86;59.50;95327.78;5029285;28;20208;-75
2022/10/24 09:00:05;;;;;;;15.75;8.52;;;;;;;18.16;59.12;95325.31;5029885;28;20205;-75
2022/10/24 09:02:38;;;;;;;16.15;9.30;;;;;;;18.09;58.43;95319.66;5028992;28;20227;-75
2022/10/24 09:05:19;;;;;;;16.20;9.48;;;;;;;18.00;59.10;95321.81;5029539;28;20331;-75
2022/10/24 09:07:47;;;;;;;16.90;9.65;;;;;;;18.16;58.49;95319.84;5028910;28;20227;-75
2022/10/24 09:10:20;;;;;;;16.85;9.68;;;;;;;18.49;57.96;95316.59;5029269;28;20235;-76
2022/10/24 09:12:47;;;;;;;17.05;10.35;;;;;;;18.30;57.71;95325.63;5029482;28;20719;-75
2022/10/24 09:15:16;;;;;;;15.90;10.23;;;;;;;18.33;58.22;95316.66;5029535;28;20662;-75
2022/10/24 09:17:43;;;;;;;18.88;10.15;;;;;;;18.37;58.06;95317.53;5028716;28;20662;-76
2022/10/24 09:20:24;;;;;;;16.40;10.35;;;;;;;18.47;57.99;95302.44;5028872;28;20243;-77
2022/10/24 09:22:51;;;;;;;18.75;10.45;;;;;;;18.44;57.37;95314.94;5029074;28;20204;-79
2022/10/24 09:25:22;;;;;;;16.98;10.48;;;;;;;18.46;57.05;95312.63;5029308;28;20208;-76
2022/10/24 09:27:49;;;;;;;19.63;11.02;;;;;;;18.67;56.94;95311.50;5028918;28;20690;-75
2022/10/24 09:30:18;;;;;;;16.98;9.90;;;;;;;18.72;56.49;95313.97;5029542;28;20270;-75
2022/10/24 09:32:45;;;;;;;17.35;9.32;;;;;;;18.77;56.05;95305.41;5028780;28;20258;-76
2022/10/24 09:35:18;;;;;;;17.73;10.40;;;;;;;18.67;56.71;95306.00;5029136;28;20251;-73
2022/10/24 09:37:47;;;;;;;18.30;10.15;;;;;;;18.72;56.94;95300.25;5028902;28;20208;-72
2022/10/24 09:40:21;;;;;;;16.15;9.07;;;;;;;18.86;56.59;95297.75;5029185;28;20204;-74
2022/10/24 09:42:52;;;;;;;17.95;8.88;;;;;;;18.91;56.42;95305.69;5025788;28;20292;-75
2022/10/24 09:45:41;;;;;;;15.57;9.23;;;;;;;18.63;56.51;95299.66;5019742;28;20204;-75
2022/10/24 09:48:19;;;;;;;16.40;8.23;;;;;;;18.87;56.23;95293.84;5012522;28;20212;-76
2022/10/24 09:50:49;;;;;;;13.95;8.18;;;;;;;18.81;56.33;95295.31;5027696;28;20298;-76
2022/10/24 09:53:24;;;;;;;17.73;8.30;;;;;;;18.72;56.42;95292.00;5030622;28;20258;-75
2022/10/24 09:55:52;;;;;;;12.10;7.18;;;;;;;18.92;55.99;95282.56;5032970;28;20199;-76
2022/10/24 09:58:28;;;;;;;12.13;7.55;;;;;;;19.25;55.49;95286.69;5032695;28;20262;-76
2022/10/24 10:01:00;;;;;;;12.85;7.57;;;;;;;19.52;54.79;95280.09;5033041;28;20196;-76
2022/10/24 10:03:27;;;;;;;13.57;7.43;;;;;;;19.52;54.87;95280.88;5032971;28;20367;-76
2022/10/24 10:05:57;;;;;;;14.45;7.00;;;;;;;19.30;54.78;95283.59;5032998;28;20469;-77
2022/10/24 10:08:27;;;;;;;12.93;6.95;;;;;;;19.39;55.22;95273.19;5032928;28;20215;-77
2022/10/24 10:11:00;;;;;;;14.05;6.70;;;;;;;19.64;54.33;95266.16;5032775;28;20228;-76
2022/10/24 10:13:28;;;;;;;13.15;6.80;;;;;;;19.88;54.11;95265.72;5032055;28;20255;-77
2022/10/24 10:15:56;;;;;;;14.07;6.78;;;;;;;19.56;53.98;95275.44;5032230;28;20212;-77
2022/10/24 10:18:33;;;;;;;12.48;7.28;;;;;;;19.63;54.46;95264.56;5032710;28;20250;-76
2022/10/24 10:21:08;;;;;;;17.00;6.05;;;;;;;19.90;54.53;95256.31;5032684;28;20208;-76
2022/10/24 10:23:38;;;;;;;15.43;6.45;;;;;;;20.27;53.14;95254.44;5031838;28;20642;-76
2022/10/24 10:26:17;;;;;;;10.07;6.20;;;;;;;20.09;53.67;95253.44;5032686;28;20633;-75
2022/10/24 10:28:53;;;;;;;11.18;6.35;;;;;;;20.10;52.98;95255.78;5020664;28;20247;-78
2022/10/24 10:31:22;;;;;;;9.90;5.85;;;;;;;20.18;53.48;95256.69;5032626;28;20219;-75
2022/10/24 10:34:04;;;;;;;12.75;5.30;;;;;;;20.09;53.16;95245.19;5032441;28;20204;-76
2022/10/24 10:36:38;;;;;;;10.52;5.80;;;;;;;20.16;53.31;95250.75;5032969;28;20579;-75
2022/10/24 10:39:28;;;;;;;9.05;5.07;;;;;;;20.41;52.42;95249.13;5032691;28;20250;-75
2022/10/24 10:41:59;;;;;;;9.07;5.50;;;;;;;20.67;52.27;95233.69;5032394;28;20200;-76
2022/10/24 10:44:43;;;;;;;9.45;4.85;;;;;;;20.85;51.55;95240.19;5032164;28;20254;-75
2022/10/24 10:47:15;;;;;;;10.48;4.68;;;;;;;21.00;51.79;95235.59;5032435;28;20615;-76
2022/10/24 10:49:42;;;;;;;8.75;5.20;;;;;;;21.18;50.85;95234.56;5032504;28;20209;-75
2022/10/24 10:52:13;;;;;;;8.82;5.07;;;;;;;21.18;50.63;95231.81;5032019;28;20232;-76
2022/10/24 10:55:13;;;;;;;8.93;4.47;;;;;;;21.01;50.92;95226.19;5031819;28;20211;-75
2022/10/24 10:57:48;;;;;;;10.45;4.88;;;;;;;21.03;50.38;95227.38;5032134;28;20717;-75
2022/10/24 11:00:18;;;;;;;9.43;4.60;;;;;;;21.08;51.20;95209.69;5032485;28;20196;-75
2022/10/24 11:02:56;;;;;;;10.82;4.65;;;;;;;21.10;50.87;95216.41;5032077;28;20282;-76
2022/10/24 11:05:33;;;;;;;8.65;4.63;;;;;;;21.26;50.59;95211.47;5030514;28;20323;-75
2022/10/24 11:08:14;;;;;;;8.80;4.60;;;;;;;21.60;49.76;95206.59;5032396;28;20204;-76
2022/10/24 11:10:44;;;;;;;9.70;5.20;;;;;;;21.81;49.53;95192.16;5031851;28;20278;-75
2022/10/24 11:13:16;;;;;;;10.20;4.80;;;;;;;21.79;49.24;95200.00;5032142;28;20204;-77
2022/10/24 11:15:49;;;;;;;9.88;5.15;;;;;;;21.39;49.69;95197.38;5032138;28;20199;-75
2022/10/24 11:18:21;;;;;;;12.40;5.05;;;;;;;21.27;50.12;95196.50;5030995;28;20204;-74
2022/10/24 11:20:52;;;;;;;10.65;4.78;;;;;;;21.24;50.62;95191.75;5031127;28;20752;-75
2022/10/24 11:23:28;;;;;;;9.57;4.70;;;;;;;21.40;49.53;95196.22;5030638;28;20200;-76
2022/10/24 11:26:01;;;;;;;8.23;4.70;;;;;;;21.68;49.61;95193.66;5031829;28;20221;-75
2022/10/24 11:28:34;;;;;;;11.52;4.57;;;;;;;21.62;49.69;95195.19;5031854;28;20611;-77
2022/10/24 11:31:07;;;;;;;8.05;4.57;;;;;;;22.08;48.99;95178.13;5031790;28;20358;-76
2022/10/24 11:33:39;;;;;;;11.88;4.50;;;;;;;22.30;47.89;95179.78;5032079;28;20706;-76
2022/10/24 11:36:16;;;;;;;10.65;4.63;;;;;;;22.28;47.79;95169.13;5030634;28;20262;-75
2022/10/24 11:38:51;;;;;;;11.15;4.90;;;;;;;22.37;47.57;95174.28;5031032;28;20208;-76
2022/10/24 11:41:48;;;;;;;6.97;4.00;;;;;;;22.31;48.32;95170.31;5031149;28;20204;-75
2022/10/24 11:44:34;;;;;;;13.35;5.35;;;;;;;22.17;47.72;95173.03;5018184;28;20653;-75